Time;durP1;ratioP1;P1;durP2;ratioP2;P2;SDS_P1;SDS_P2;PMS_P1;PMS_P2;Temp;Humidity;BMP_temperature;BMP_pressure;BME280_temperature;BME280_humidity;BME280_pressure;Samples;Min_cycle;Max_cycle;Signal;HPM_P1;HPM_P2
2021/05/10 00:01:15;;;;;;;5.10;1.85;;;14.40;99.90;;;;;;5015061;28;20079;-73
2021/05/10 00:03:40;;;;;;;2.25;1.75;;;14.50;99.90;;;;;;5012964;28;20097;-72
2021/05/10 00:06:06;;;;;;;3.42;1.98;;;14.50;99.90;;;;;;5013833;28;20101;-72
2021/05/10 00:08:32;;;;;;;3.53;2.05;;;14.40;99.90;;;;;;5013720;28;20026;-73
2021/05/10 00:10:58;;;;;;;2.90;2.10;;;14.40;99.90;;;;;;5013454;28;20546;-73
2021/05/10 00:13:25;;;;;;;4.53;2.38;;;14.40;99.90;;;;;;5012866;28;20052;-72
2021/05/10 00:15:51;;;;;;;8.73;2.58;;;14.30;99.90;;;;;;5013162;28;20105;-72
2021/05/10 00:18:18;;;;;;;2.42;2.22;;;14.20;99.90;;;;;;5013277;28;20112;-73
2021/05/10 00:20:45;;;;;;;4.95;2.28;;;14.10;99.90;;;;;;5013453;28;20041;-72
2021/05/10 00:23:12;;;;;;;7.47;2.13;;;14.10;99.90;;;;;;5012734;28;20053;-72
2021/05/10 00:25:38;;;;;;;2.65;2.45;;;14.00;99.90;;;;;;5013229;28;20029;-72
2021/05/10 00:28:06;;;;;;;4.72;2.47;;;13.80;99.90;;;;;;5013385;28;20073;-73
2021/05/10 00:30:32;;;;;;;3.25;2.05;;;13.70;99.90;;;;;;5013898;28;20030;-73
2021/05/10 00:32:58;;;;;;;2.80;2.22;;;13.60;99.90;;;;;;5032165;28;20026;-73
2021/05/10 00:35:25;;;;;;;4.78;2.50;;;13.70;99.90;;;;;;5014434;28;20038;-74
2021/05/10 00:37:51;;;;;;;2.90;2.38;;;13.50;99.90;;;;;;5013534;28;20033;-73
2021/05/10 00:40:19;;;;;;;2.47;2.30;;;13.50;99.90;;;;;;5012796;28;20109;-73
2021/05/10 00:42:45;;;;;;;3.40;2.50;;;13.40;99.90;;;;;;5012535;28;20025;-73
2021/05/10 00:45:11;;;;;;;13.68;3.10;;;13.30;99.90;;;;;;5012813;28;20026;-73
2021/05/10 00:47:37;;;;;;;4.15;2.53;;;13.30;99.90;;;;;;5013082;28;20026;-73
2021/05/10 00:50:05;;;;;;;4.68;2.60;;;13.20;99.90;;;;;;5012812;28;20020;-73
2021/05/10 00:52:31;;;;;;;4.82;2.80;;;13.20;99.90;;;;;;4995131;28;20176;-73
2021/05/10 00:54:57;;;;;;;3.55;2.60;;;13.10;99.90;;;;;;4994268;28;20109;-73
2021/05/10 00:57:23;;;;;;;3.15;2.75;;;12.90;99.90;;;;;;5013406;28;20029;-72
2021/05/10 00:59:51;;;;;;;3.35;2.40;;;13.00;99.90;;;;;;5015495;28;20022;-72
2021/05/10 01:02:18;;;;;;;2.90;2.60;;;13.00;99.90;;;;;;5013839;28;20099;-73
2021/05/10 01:04:44;;;;;;;2.53;2.17;;;12.90;99.90;;;;;;5013318;28;20026;-74
2021/05/10 01:07:10;;;;;;;4.18;2.53;;;12.80;99.90;;;;;;4995503;28;20057;-73
2021/05/10 01:09:36;;;;;;;2.97;2.67;;;12.70;99.90;;;;;;5012205;28;20133;-73
2021/05/10 01:12:02;;;;;;;4.07;2.55;;;12.70;99.90;;;;;;5012346;28;20076;-72
2021/05/10 01:14:28;;;;;;;2.83;2.63;;;12.80;99.90;;;;;;5011298;28;20058;-73
2021/05/10 01:16:53;;;;;;;5.43;2.70;;;12.70;99.90;;;;;;5012675;28;20054;-73
2021/05/10 01:19:22;;;;;;;3.92;2.67;;;12.70;99.90;;;;;;5012190;28;20512;-73
2021/05/10 01:21:49;;;;;;;3.03;2.83;;;12.70;99.90;;;;;;4994504;28;20026;-72
2021/05/10 01:24:16;;;;;;;5.90;3.60;;;12.70;99.90;;;;;;5011348;28;20516;-72
2021/05/10 01:26:42;;;;;;;3.80;3.20;;;12.70;99.90;;;;;;5011806;28;20476;-73
2021/05/10 01:29:08;;;;;;;3.55;3.00;;;12.70;99.90;;;;;;5011779;28;20141;-72
2021/05/10 01:31:34;;;;;;;3.58;2.22;;;12.70;99.90;;;;;;5011975;28;20044;-72
2021/05/10 01:34:02;;;;;;;2.83;2.42;;;12.70;99.90;;;;;;5011385;28;20036;-73
2021/05/10 01:36:28;;;;;;;2.47;2.30;;;12.60;99.90;;;;;;5011761;28;20500;-73
2021/05/10 01:38:53;;;;;;;3.92;2.92;;;12.60;99.90;;;;;;5012048;28;20030;-73
2021/05/10 01:41:19;;;;;;;3.40;2.50;;;12.60;99.90;;;;;;4994158;28;20022;-73
2021/05/10 01:43:45;;;;;;;7.05;2.40;;;12.60;99.90;;;;;;5011384;28;20022;-73
2021/05/10 01:46:10;;;;;;;2.83;2.60;;;12.50;99.90;;;;;;5011876;28;20014;-72
2021/05/10 01:48:36;;;;;;;3.83;2.70;;;12.50;99.90;;;;;;5011715;28;20048;-72
2021/05/10 01:51:01;;;;;;;4.57;2.45;;;12.70;99.90;;;;;;5011879;28;20365;-72
2021/05/10 01:53:27;;;;;;;3.28;2.75;;;12.70;99.90;;;;;;5011023;28;20672;-73
2021/05/10 01:55:53;;;;;;;3.15;2.60;;;12.80;99.90;;;;;;5011188;28;20042;-73
2021/05/10 01:58:19;;;;;;;7.75;2.58;;;12.90;99.90;;;;;;5011531;28;20030;-72
2021/05/10 02:00:46;;;;;;;5.25;2.75;;;12.90;99.90;;;;;;4993797;28;20435;-73
2021/05/10 02:03:17;;;;;;;3.78;2.65;;;13.00;99.90;;;;;;5010846;28;20554;-73
2021/05/10 02:05:43;;;;;;;3.28;2.60;;;12.90;99.90;;;;;;5010527;28;20040;-73
2021/05/10 02:08:12;;;;;;;4.28;2.28;;;12.90;99.90;;;;;;5010894;28;20018;-74
2021/05/10 02:10:42;;;;;;;2.92;2.67;;;12.90;99.90;;;;;;5011205;28;20488;-72
2021/05/10 02:13:10;;;;;;;3.17;2.88;;;13.00;99.90;;;;;;5111995;23;20134;-72
2021/05/10 02:15:38;;;;;;;6.88;2.92;;;12.90;99.90;;;;;;5023075;28;20491;-72
2021/05/10 02:18:05;;;;;;;3.13;2.45;;;13.00;99.90;;;;;;5033641;28;20018;-72
2021/05/10 02:20:32;;;;;;;4.60;2.53;;;12.80;99.90;;;;;;5032716;28;20030;-72
2021/05/10 02:23:00;;;;;;;2.80;2.60;;;12.80;99.90;;;;;;5030538;28;20116;-72
2021/05/10 02:25:34;;;;;;;4.30;3.05;;;12.80;99.90;;;;;;5031831;28;20037;-71
2021/05/10 02:28:00;;;;;;;4.30;2.60;;;12.60;99.90;;;;;;5035176;28;20021;-71
2021/05/10 02:30:29;;;;;;;2.95;2.50;;;12.60;99.90;;;;;;5035309;28;20043;-72
2021/05/10 02:32:55;;;;;;;3.05;2.75;;;12.60;99.90;;;;;;5034315;28;20112;-71
2021/05/10 02:35:22;;;;;;;3.40;2.58;;;12.50;99.90;;;;;;5035069;28;20041;-72
2021/05/10 02:37:48;;;;;;;3.20;2.85;;;12.50;99.90;;;;;;5035216;28;20083;-72
2021/05/10 02:40:14;;;;;;;5.65;2.80;;;12.40;99.90;;;;;;5035127;28;20025;-72
2021/05/10 02:42:41;;;;;;;3.72;3.08;;;12.40;99.90;;;;;;5034639;28;20029;-72
2021/05/10 02:45:08;;;;;;;3.55;2.85;;;12.40;99.90;;;;;;5015048;28;20018;-72
2021/05/10 02:47:34;;;;;;;2.63;2.42;;;12.40;99.90;;;;;;4997580;28;20053;-71
2021/05/10 02:50:01;;;;;;;3.20;2.90;;;12.20;99.90;;;;;;5015060;28;20054;-72
2021/05/10 02:52:26;;;;;;;6.30;2.90;;;12.20;99.90;;;;;;5015042;28;20050;-72
2021/05/10 02:54:52;;;;;;;5.68;2.92;;;12.30;99.90;;;;;;5014545;28;20059;-72
2021/05/10 02:57:18;;;;;;;4.88;2.55;;;12.20;99.90;;;;;;4997624;28;20109;-72
2021/05/10 02:59:44;;;;;;;3.08;2.78;;;12.20;99.90;;;;;;4997934;28;20037;-71
2021/05/10 03:02:10;;;;;;;7.22;2.88;;;12.20;99.90;;;;;;5015516;28;20018;-72
2021/05/10 03:04:35;;;;;;;5.57;2.75;;;12.30;99.90;;;;;;4997425;28;20099;-72
2021/05/10 03:07:01;;;;;;;2.85;2.65;;;12.20;99.90;;;;;;5015919;28;20496;-72
2021/05/10 03:09:27;;;;;;;3.40;2.60;;;12.10;99.90;;;;;;5015897;28;20468;-72
2021/05/10 03:11:52;;;;;;;4.03;2.40;;;12.10;99.90;;;;;;5015787;28;20026;-72
2021/05/10 03:14:19;;;;;;;2.75;2.55;;;12.00;99.90;;;;;;5030809;28;20120;-72
2021/05/10 03:16:44;;;;;;;4.57;3.30;;;12.20;99.90;;;;;;5036310;28;20491;-72
2021/05/10 03:19:10;;;;;;;4.05;2.47;;;12.20;99.90;;;;;;5017017;28;20040;-73
2021/05/10 03:21:38;;;;;;;2.95;2.70;;;12.10;99.90;;;;;;5034269;28;20080;-72
2021/05/10 03:24:08;;;;;;;3.72;2.80;;;12.30;99.90;;;;;;5034034;28;20371;-72
2021/05/10 03:26:34;;;;;;;4.38;2.95;;;12.30;99.90;;;;;;5017758;28;20045;-71
2021/05/10 03:29:05;;;;;;;6.07;3.00;;;12.30;99.90;;;;;;5034244;28;20381;-71
2021/05/10 03:31:31;;;;;;;4.80;2.92;;;12.30;99.90;;;;;;5034385;28;20612;-71
2021/05/10 03:33:57;;;;;;;4.85;2.90;;;12.30;99.90;;;;;;5033267;28;20021;-72
2021/05/10 03:36:23;;;;;;;11.18;3.20;;;12.30;99.90;;;;;;5033706;28;20084;-72
2021/05/10 03:38:49;;;;;;;3.10;2.80;;;12.30;99.90;;;;;;5016299;28;20112;-72
2021/05/10 03:41:15;;;;;;;6.85;2.88;;;12.40;99.90;;;;;;5016240;28;20464;-72
2021/05/10 03:43:41;;;;;;;4.40;3.10;;;12.50;99.90;;;;;;5024574;28;20723;-72
2021/05/10 03:46:06;;;;;;;3.50;3.20;;;12.50;99.90;;;;;;5014279;28;20070;-72
2021/05/10 03:48:32;;;;;;;4.53;3.15;;;12.50;99.90;;;;;;5014005;28;20021;-72
2021/05/10 03:50:58;;;;;;;5.95;3.30;;;12.60;99.90;;;;;;5014226;28;20033;-72
2021/05/10 03:53:24;;;;;;;6.03;2.95;;;12.50;99.90;;;;;;4995566;28;20029;-72
2021/05/10 03:55:51;;;;;;;5.35;3.30;;;12.50;99.90;;;;;;4996218;28;20037;-71
2021/05/10 03:58:17;;;;;;;4.88;3.58;;;12.50;99.90;;;;;;4996151;28;20029;-71
2021/05/10 04:00:43;;;;;;;3.38;3.08;;;12.60;99.90;;;;;;4996372;28;20033;-72
2021/05/10 04:03:11;;;;;;;9.30;3.63;;;12.70;99.90;;;;;;5013632;28;20030;-72
2021/05/10 04:13:55;;;;;;;8.73;3.47;;;12.90;99.90;;;;;;5012297;28;20064;-72
2021/05/10 04:16:20;;;;;;;7.93;3.40;;;13.00;99.90;;;;;;5013602;28;20025;-72
2021/05/10 04:18:46;;;;;;;4.30;3.38;;;13.10;99.90;;;;;;5013521;28;20033;-72
2021/05/10 04:21:12;;;;;;;7.97;3.40;;;13.10;99.90;;;;;;5013221;28;20030;-72
2021/05/10 04:23:37;;;;;;;4.53;3.42;;;13.20;99.90;;;;;;5012537;28;20496;-72
2021/05/10 04:26:03;;;;;;;3.63;3.33;;;13.30;99.90;;;;;;5012346;28;20041;-74
2021/05/10 04:28:30;;;;;;;4.80;3.20;;;13.20;99.90;;;;;;5023974;28;20118;-71
2021/05/10 04:30:56;;;;;;;4.50;3.10;;;13.20;99.90;;;;;;5017682;28;20036;-72
2021/05/10 04:33:32;;;;;;;3.75;3.17;;;13.20;99.90;;;;;;5009979;28;20404;-72
2021/05/10 04:35:59;;;;;;;9.90;3.28;;;13.20;99.90;;;;;;5013946;28;20032;-72
2021/05/10 04:38:25;;;;;;;2.95;2.60;;;13.20;99.90;;;;;;5014876;28;20030;-72
2021/05/10 04:40:51;;;;;;;3.17;2.88;;;13.30;99.90;;;;;;5013823;28;20725;-73
2021/05/10 04:43:17;;;;;;;3.42;3.10;;;13.30;99.90;;;;;;5016894;28;20083;-71
2021/05/10 04:45:44;;;;;;;6.38;2.67;;;13.40;99.90;;;;;;5013915;28;20422;-71
2021/05/10 04:48:10;;;;;;;3.70;2.97;;;13.30;99.90;;;;;;5030399;28;20029;-72
2021/05/10 04:50:36;;;;;;;4.13;2.67;;;13.50;99.90;;;;;;5031349;28;20097;-72
2021/05/10 04:53:02;;;;;;;4.10;3.47;;;13.70;99.90;;;;;;5031141;28;20033;-71
2021/05/10 04:55:28;;;;;;;4.72;2.85;;;13.50;99.90;;;;;;5031257;28;20056;-71
2021/05/10 04:57:54;;;;;;;5.03;2.90;;;13.60;99.90;;;;;;5031118;28;20413;-72
2021/05/10 05:00:21;;;;;;;5.15;4.10;;;13.60;99.90;;;;;;5030458;28;20456;-71
2021/05/10 05:02:47;;;;;;;4.45;3.28;;;13.80;99.90;;;;;;5011732;28;20025;-77
2021/05/10 05:05:13;;;;;;;15.35;4.15;;;13.90;99.90;;;;;;5030346;28;20024;-75
2021/05/10 05:07:39;;;;;;;6.90;3.50;;;14.00;99.90;;;;;;5030176;28;20088;-75
2021/05/10 05:10:06;;;;;;;19.00;4.07;;;14.10;99.90;;;;;;5029796;28;20017;-74
2021/05/10 05:12:32;;;;;;;13.80;4.82;;;14.10;99.90;;;;;;5030070;28;20048;-74
2021/05/10 05:14:57;;;;;;;7.00;3.70;;;14.30;99.90;;;;;;5009942;28;20065;-73
2021/05/10 05:17:23;;;;;;;4.45;3.20;;;14.30;99.90;;;;;;5010595;28;20109;-72
2021/05/10 05:19:49;;;;;;;9.30;3.17;;;14.40;99.90;;;;;;5010260;28;20069;-74
2021/05/10 05:22:14;;;;;;;3.67;2.70;;;14.50;99.90;;;;;;4993275;28;20192;-74
2021/05/10 05:24:40;;;;;;;7.00;2.92;;;14.50;99.90;;;;;;5010702;28;20021;-75
2021/05/10 05:27:06;;;;;;;10.15;2.92;;;14.50;99.90;;;;;;5010477;28;20030;-73
2021/05/10 05:29:31;;;;;;;5.10;2.83;;;14.60;99.90;;;;;;5009848;28;20469;-73
2021/05/10 05:31:58;;;;;;;10.43;3.38;;;14.50;99.90;;;;;;5009894;28;20030;-73
2021/05/10 05:34:24;;;;;;;8.02;3.78;;;14.70;99.90;;;;;;5009974;28;20504;-74
2021/05/10 05:36:50;;;;;;;5.53;3.15;;;14.60;99.90;;;;;;5010095;28;20444;-74
2021/05/10 05:39:15;;;;;;;6.82;3.20;;;14.50;99.90;;;;;;5010549;28;20053;-73
2021/05/10 05:41:41;;;;;;;10.52;3.42;;;14.50;99.90;;;;;;4993028;28;20117;-73
2021/05/10 05:44:07;;;;;;;3.75;2.95;;;14.60;99.90;;;;;;4992255;28;20112;-74
2021/05/10 05:47:01;;;;;;;5.63;3.65;;;14.80;99.90;;;;;;5010140;28;20022;-73
2021/05/10 05:49:24;;;;;;;6.47;3.50;;;14.70;99.90;;;;;;5009822;28;20451;-72
2021/05/10 05:51:50;;;;;;;5.85;2.97;;;14.70;99.90;;;;;;5009879;28;20113;-74
2021/05/10 05:54:15;;;;;;;5.38;2.97;;;15.10;99.90;;;;;;5009439;28;20113;-74
2021/05/10 05:56:41;;;;;;;10.25;3.13;;;15.20;99.90;;;;;;4996859;28;20037;-73
2021/05/10 05:59:08;;;;;;;3.63;3.10;;;15.30;99.90;;;;;;5017962;28;20030;-74
2021/05/10 06:01:34;;;;;;;31.33;4.82;;;15.50;99.90;;;;;;5009293;28;20028;-74
2021/05/10 06:03:59;;;;;;;40.45;5.53;;;15.50;99.90;;;;;;5012297;28;20025;-73
2021/05/10 06:06:25;;;;;;;14.85;3.28;;;15.80;99.90;;;;;;5003513;28;20446;-72
2021/05/10 06:08:51;;;;;;;36.35;5.32;;;15.90;99.90;;;;;;5024552;28;20064;-73
2021/05/10 06:11:17;;;;;;;8.00;2.97;;;15.80;99.90;;;;;;5025041;28;20025;-73
2021/05/10 06:13:42;;;;;;;7.95;3.17;;;15.80;99.90;;;;;;5019006;28;20030;-72
2021/05/10 06:16:08;;;;;;;10.30;3.38;;;15.90;99.90;;;;;;5001469;28;20033;-72
2021/05/10 06:18:34;;;;;;;5.60;3.33;;;16.00;99.90;;;;;;5029714;28;20021;-74
2021/05/10 06:21:01;;;;;;;5.93;3.05;;;16.10;99.90;;;;;;5029275;28;20025;-73
2021/05/10 06:23:27;;;;;;;6.80;2.95;;;16.00;99.90;;;;;;5029009;28;20026;-72
2021/05/10 06:25:53;;;;;;;3.53;2.75;;;16.20;99.90;;;;;;5030415;28;20430;-72
2021/05/10 06:28:19;;;;;;;7.82;2.38;;;16.10;99.90;;;;;;5024563;28;20032;-72
2021/05/10 06:30:44;;;;;;;3.97;2.72;;;16.40;99.90;;;;;;5030146;28;20032;-72
2021/05/10 06:33:10;;;;;;;4.70;2.50;;;16.40;99.90;;;;;;5012092;28;20487;-72
2021/05/10 06:35:36;;;;;;;4.15;2.65;;;16.40;99.90;;;;;;5030912;28;20090;-72
2021/05/10 06:38:01;;;;;;;2.97;2.65;;;16.30;99.90;;;;;;5030868;28;20432;-72
2021/05/10 06:40:28;;;;;;;2.97;2.45;;;16.40;99.90;;;;;;5030316;28;20116;-73
2021/05/10 06:42:55;;;;;;;5.25;2.40;;;16.50;99.90;;;;;;5028091;28;20483;-72
2021/05/10 06:45:20;;;;;;;3.85;2.20;;;16.70;99.90;;;;;;4993129;28;20029;-72
2021/05/10 06:47:46;;;;;;;5.88;2.30;;;16.80;99.90;;;;;;5009300;28;20025;-72
2021/05/10 06:50:12;;;;;;;4.18;2.40;;;17.00;99.90;;;;;;5030881;28;20030;-72
2021/05/10 06:52:38;;;;;;;2.78;2.47;;;17.20;99.90;;;;;;5030015;28;20022;-72
2021/05/10 06:55:05;;;;;;;4.47;2.47;;;17.40;99.90;;;;;;5030749;28;20423;-71
2021/05/10 06:57:31;;;;;;;3.90;2.67;;;17.40;99.90;;;;;;5032239;28;20122;-71
2021/05/10 06:59:57;;;;;;;6.75;2.60;;;17.40;99.90;;;;;;5031273;28;20105;-72
2021/05/10 07:02:24;;;;;;;5.22;2.28;;;17.40;99.90;;;;;;5030641;28;20157;-71
2021/05/10 07:04:50;;;;;;;5.00;2.80;;;17.50;99.90;;;;;;5029626;28;20021;-72
2021/05/10 07:07:16;;;;;;;2.85;2.25;;;17.40;99.90;;;;;;5030692;28;20030;-71
2021/05/10 07:09:42;;;;;;;4.90;2.58;;;17.50;99.90;;;;;;5030493;28;20423;-72
2021/05/10 07:12:08;;;;;;;7.47;3.08;;;17.60;99.90;;;;;;5031595;28;20100;-72
2021/05/10 07:14:34;;;;;;;4.82;2.58;;;17.80;99.90;;;;;;5017331;28;20088;-72
2021/05/10 07:17:00;;;;;;;5.05;2.47;;;17.90;99.90;;;;;;5013999;28;20100;-74
2021/05/10 07:19:26;;;;;;;8.13;2.42;;;17.80;99.90;;;;;;5013258;28;20025;-73
2021/05/10 07:21:52;;;;;;;5.95;2.58;;;17.90;99.90;;;;;;5013625;28;20033;-73
2021/05/10 07:24:18;;;;;;;10.88;2.92;;;17.90;99.90;;;;;;5029056;28;20021;-70
2021/05/10 07:26:44;;;;;;;8.27;2.80;;;17.90;99.90;;;;;;5034077;28;20028;-74
2021/05/10 07:29:10;;;;;;;88.70;9.40;;;18.40;99.90;;;;;;5033354;28;20093;-72
2021/05/10 07:31:35;;;;;;;41.13;6.30;;;18.30;99.90;;;;;;5033517;28;20064;-72
2021/05/10 07:34:01;;;;;;;13.02;2.90;;;18.50;99.90;;;;;;5014838;28;20047;-71
2021/05/10 07:36:27;;;;;;;9.80;3.25;;;18.50;99.90;;;;;;5034095;28;20036;-71
2021/05/10 07:38:52;;;;;;;6.53;2.33;;;18.90;99.90;;;;;;5033794;28;20033;-73
2021/05/10 07:41:18;;;;;;;8.15;2.50;;;19.00;99.90;;;;;;5033565;28;20087;-71
2021/05/10 07:43:44;;;;;;;8.52;3.05;;;18.80;99.90;;;;;;5032810;28;20028;-74
2021/05/10 07:46:09;;;;;;;8.60;2.63;;;18.70;99.90;;;;;;5033568;28;20021;-70
2021/05/10 07:48:35;;;;;;;7.45;2.58;;;18.60;99.90;;;;;;5034718;28;20029;-73
2021/05/10 07:51:01;;;;;;;8.57;2.97;;;18.60;99.90;;;;;;5039451;28;20026;-74
2021/05/10 07:53:26;;;;;;;8.35;2.85;;;18.60;99.90;;;;;;5035750;28;20038;-72
2021/05/10 07:55:53;;;;;;;6.28;3.05;;;18.50;99.90;;;;;;5034241;28;20056;-72
2021/05/10 07:58:26;;;;;;;9.82;2.90;;;18.70;99.90;;;;;;5033543;28;20164;-73
2021/05/10 08:00:59;;;;;;;8.30;2.50;;;19.10;99.90;;;;;;5032735;28;20029;-72
2021/05/10 08:03:27;;;;;;;6.88;2.33;;;19.10;99.90;;;;;;5032977;28;20029;-70
2021/05/10 08:05:53;;;;;;;8.93;2.30;;;19.50;99.90;;;;;;5029751;28;20021;-70
2021/05/10 08:08:22;;;;;;;7.45;2.45;;;19.80;99.90;;;;;;5030970;28;20021;-72
2021/05/10 08:10:49;;;;;;;12.30;2.83;;;20.10;99.90;;;;;;5032854;28;20052;-73
2021/05/10 08:13:15;;;;;;;7.05;2.70;;;20.30;99.90;;;;;;5005074;28;20083;-72
2021/05/10 08:15:41;;;;;;;5.90;2.58;;;20.70;99.90;;;;;;5038136;23;20046;-73
2021/05/10 08:18:06;;;;;;;3.33;2.10;;;21.00;99.90;;;;;;5017555;28;20033;-74
2021/05/10 08:20:33;;;;;;;6.38;2.58;;;21.30;99.90;;;;;;5033882;28;20025;-73
2021/05/10 08:22:58;;;;;;;5.05;2.38;;;21.50;99.90;;;;;;5016341;28;20029;-75
2021/05/10 08:25:24;;;;;;;6.80;2.03;;;21.20;99.90;;;;;;5034772;28;20037;-76
2021/05/10 08:27:50;;;;;;;5.03;1.92;;;21.10;99.90;;;;;;5015364;28;20038;-76
2021/05/10 08:30:17;;;;;;;3.20;2.08;;;21.00;99.90;;;;;;5016958;28;20026;-75
2021/05/10 08:32:42;;;;;;;3.25;1.85;;;21.30;99.90;;;;;;5033120;28;20395;-76
2021/05/10 08:35:10;;;;;;;2.55;1.70;;;21.60;99.90;;;;;;5018213;28;20048;-73
2021/05/10 08:37:36;;;;;;;8.20;1.95;;;21.80;99.90;;;;;;5033743;28;20036;-74
2021/05/10 08:40:04;;;;;;;5.10;2.10;;;22.30;99.90;;;;;;5033812;28;20036;-74
2021/05/10 08:42:30;;;;;;;6.78;2.30;;;22.10;99.60;;;;;;5035148;28;20034;-74
2021/05/10 08:44:56;;;;;;;5.03;2.10;;;21.90;99.90;;;;;;5026368;28;20026;-75
2021/05/10 08:47:32;;;;;;;9.90;1.90;;;21.80;99.80;;;;;;5012827;28;20180;-74
2021/05/10 08:50:01;;;;;;;2.60;1.90;;;21.90;99.70;;;;;;5012439;28;20026;-73
2021/05/10 08:52:27;;;;;;;4.00;1.77;;;22.30;99.90;;;;;;5012913;28;20030;-72
2021/05/10 08:54:53;;;;;;;7.65;2.42;;;22.50;98.00;;;;;;5012140;28;20030;-74
2021/05/10 08:57:19;;;;;;;6.10;1.90;;;22.50;97.40;;;;;;5013153;28;20089;-74
2021/05/10 08:59:45;;;;;;;2.67;2.08;;;22.10;97.20;;;;;;5012283;28;20030;-74
2021/05/10 09:02:11;;;;;;;2.60;1.85;;;22.10;97.30;;;;;;4994413;28;20106;-74
2021/05/10 09:04:39;;;;;;;26.88;4.22;;;22.60;98.50;;;;;;5011935;28;20824;-74
2021/05/10 09:07:17;;;;;;;11.07;2.17;;;22.40;97.60;;;;;;5016092;28;20022;-74
2021/05/10 09:10:00;;;;;;;7.20;2.40;;;22.30;97.50;;;;;;5012636;28;20018;-71
2021/05/10 09:12:45;;;;;;;12.88;2.88;;;22.70;98.20;;;;;;5031146;28;20506;-73
2021/05/10 09:15:27;;;;;;;5.25;2.10;;;23.20;97.30;;;;;;5024512;28;20042;-74
2021/05/10 09:18:03;;;;;;;7.13;2.47;;;23.60;96.80;;;;;;4994680;28;20048;-70
2021/05/10 09:20:34;;;;;;;4.45;1.90;;;23.40;96.10;;;;;;5012133;28;20041;-73
2021/05/10 09:23:14;;;;;;;6.28;1.67;;;22.90;97.70;;;;;;5017054;28;20477;-72
2021/05/10 09:25:45;;;;;;;2.17;1.70;;;23.00;96.20;;;;;;5014511;28;20028;-71
2021/05/10 09:28:20;;;;;;;2.23;1.60;;;23.30;96.80;;;;;;5033464;28;20029;-72
2021/05/10 09:30:50;;;;;;;3.75;1.75;;;23.00;98.20;;;;;;5031410;28;20468;-70
2021/05/10 09:33:27;;;;;;;7.65;1.90;;;23.50;97.10;;;;;;5031135;28;20511;-71
2021/05/10 09:35:54;;;;;;;3.15;1.63;;;24.80;96.40;;;;;;5031007;28;20133;-71
2021/05/10 09:38:22;;;;;;;4.15;1.60;;;24.80;94.70;;;;;;5033269;28;20036;-74
2021/05/10 09:40:59;;;;;;;3.60;1.80;;;25.00;93.00;;;;;;5031320;28;20087;-70
2021/05/10 09:43:31;;;;;;;5.25;1.70;;;24.80;92.80;;;;;;5031276;28;20463;-72
2021/05/10 09:46:00;;;;;;;9.60;2.35;;;23.90;94.20;;;;;;5019810;28;20022;-72
2021/05/10 09:48:32;;;;;;;3.20;1.55;;;24.00;94.20;;;;;;5011735;28;20022;-71
2021/05/10 09:51:01;;;;;;;6.90;1.83;;;24.20;93.70;;;;;;5011803;28;20038;-72
2021/05/10 09:53:40;;;;;;;2.10;1.30;;;24.20;94.40;;;;;;5030931;28;20029;-73
2021/05/10 09:56:28;;;;;;;4.22;1.48;;;24.30;93.30;;;;;;5014589;28;20539;-73
2021/05/10 09:58:56;;;;;;;3.90;1.38;;;24.40;92.90;;;;;;5011364;28;20036;-72
2021/05/10 10:01:23;;;;;;;9.40;1.90;;;24.00;92.60;;;;;;5006172;28;20029;-74
2021/05/10 10:03:51;;;;;;;3.92;1.55;;;23.40;93.60;;;;;;5031451;28;20045;-73
2021/05/10 10:06:19;;;;;;;29.60;2.83;;;23.40;93.70;;;;;;5032666;28;20017;-72
2021/05/10 10:08:49;;;;;;;5.63;1.60;;;23.70;93.60;;;;;;5032246;28;20052;-74
2021/05/10 10:11:18;;;;;;;32.90;3.65;;;23.70;93.40;;;;;;5022763;28;20037;-74
2021/05/10 10:13:44;;;;;;;19.27;3.15;;;23.70;94.10;;;;;;5011538;28;20064;-73
2021/05/10 10:16:11;;;;;;;5.07;1.95;;;24.10;93.90;;;;;;5023842;28;20029;-73
2021/05/10 10:18:39;;;;;;;6.82;1.67;;;24.40;93.60;;;;;;5011702;28;20026;-73
2021/05/10 10:21:07;;;;;;;4.45;1.90;;;24.50;92.80;;;;;;5011619;28;20456;-73
2021/05/10 10:23:35;;;;;;;13.95;2.00;;;24.40;92.00;;;;;;5010894;28;20018;-74
2021/05/10 10:26:04;;;;;;;11.73;2.83;;;24.50;92.50;;;;;;5011510;28;20042;-73
2021/05/10 10:28:30;;;;;;;1.48;1.38;;;24.20;92.80;;;;;;5013895;28;20080;-74
2021/05/10 10:31:01;;;;;;;3.88;1.60;;;24.40;91.70;;;;;;5030676;28;20025;-74
2021/05/10 10:33:50;;;;;;;4.65;1.80;;;24.00;92.30;;;;;;5030243;28;20445;-73
2021/05/10 10:36:31;;;;;;;8.07;1.80;;;23.50;91.70;;;;;;5030672;28;20041;-74
2021/05/10 10:39:32;;;;;;;4.53;1.98;;;23.70;92.70;;;;;;5030768;28;20034;-74
2021/05/10 10:42:09;;;;;;;11.23;2.05;;;24.20;91.90;;;;;;4979087;28;20470;-73
2021/05/10 10:44:43;;;;;;;3.80;2.05;;;24.50;91.50;;;;;;5010204;28;20036;-74
2021/05/10 10:47:11;;;;;;;3.10;1.55;;;24.80;90.50;;;;;;5013960;28;20034;-73
2021/05/10 10:49:44;;;;;;;1.95;1.75;;;24.20;90.20;;;;;;5021611;28;20052;-73
2021/05/10 10:52:19;;;;;;;6.28;1.33;;;23.20;91.30;;;;;;5018499;28;20101;-73
2021/05/10 10:54:46;;;;;;;7.32;1.80;;;23.30;91.30;;;;;;5019811;28;20375;-73
2021/05/10 10:57:31;;;;;;;3.90;1.63;;;23.20;91.70;;;;;;5020483;28;20115;-72
2021/05/10 10:59:57;;;;;;;2.22;1.27;;;23.00;92.40;;;;;;5018004;28;20037;-72
2021/05/10 11:02:28;;;;;;;3.13;1.88;;;22.90;92.20;;;;;;5014847;28;20101;-74
2021/05/10 11:05:24;;;;;;;2.72;1.30;;;22.90;92.60;;;;;;5016475;28;20113;-72
2021/05/10 11:07:53;;;;;;;4.72;1.52;;;22.70;93.20;;;;;;5021865;28;20099;-73
2021/05/10 11:10:44;;;;;;;3.70;1.80;;;22.60;93.50;;;;;;5021883;28;20018;-72
2021/05/10 11:13:30;;;;;;;5.68;1.90;;;22.60;94.30;;;;;;5034928;28;20021;-73
2021/05/10 11:15:58;;;;;;;29.20;4.20;;;22.70;94.80;;;;;;5020573;28;20166;-73
2021/05/10 11:18:47;;;;;;;6.95;1.85;;;23.00;93.90;;;;;;5014583;28;20026;-73
2021/05/10 11:21:21;;;;;;;4.97;1.92;;;23.10;94.10;;;;;;5014627;28;20053;-73
2021/05/10 11:24:10;;;;;;;4.95;1.73;;;23.10;94.80;;;;;;5014135;28;20022;-73
2021/05/10 11:26:50;;;;;;;3.75;1.75;;;23.10;95.30;;;;;;5014768;28;20392;-74
2021/05/10 11:29:33;;;;;;;8.20;2.25;;;22.90;95.80;;;;;;5014197;28;20018;-73
2021/05/10 11:32:08;;;;;;;5.55;2.10;;;22.90;96.10;;;;;;5014033;28;20021;-71
2021/05/10 11:34:37;;;;;;;5.75;2.10;;;22.60;96.20;;;;;;5013721;28;20396;-71
2021/05/10 11:37:04;;;;;;;7.50;2.08;;;22.30;96.10;;;;;;5013762;28;20058;-71
2021/05/10 11:39:34;;;;;;;5.55;1.40;;;21.90;97.50;;;;;;5014067;28;20018;-71
2021/05/10 11:42:08;;;;;;;5.90;1.20;;;21.80;97.50;;;;;;5014240;28;20488;-72
2021/05/10 11:44:43;;;;;;;2.20;1.30;;;21.70;98.00;;;;;;5013371;28;20435;-72
2021/05/10 11:47:10;;;;;;;2.13;1.58;;;22.00;97.70;;;;;;5014442;28;20449;-72
2021/05/10 11:49:36;;;;;;;2.63;1.58;;;22.00;97.90;;;;;;5014134;28;20113;-72
2021/05/10 11:52:15;;;;;;;2.83;1.40;;;21.90;97.70;;;;;;5014101;28;20107;-72
2021/05/10 11:54:53;;;;;;;5.18;1.70;;;21.60;97.80;;;;;;5013440;28;20041;-72
2021/05/10 11:57:25;;;;;;;3.70;1.48;;;21.60;98.50;;;;;;5014575;28;20045;-72
2021/05/10 11:59:54;;;;;;;5.50;1.80;;;21.70;97.80;;;;;;5014916;28;20044;-71
2021/05/10 12:02:29;;;;;;;5.72;1.73;;;21.40;98.70;;;;;;5013216;28;20032;-72
2021/05/10 12:04:56;;;;;;;2.83;1.38;;;21.30;98.50;;;;;;5013368;28;20480;-73
2021/05/10 12:07:26;;;;;;;7.60;1.42;;;21.10;98.40;;;;;;5013812;28;20511;-72
2021/05/10 12:10:02;;;;;;;4.38;1.38;;;21.10;99.10;;;;;;5013763;28;20022;-72
2021/05/10 12:12:41;;;;;;;7.78;1.50;;;21.20;98.50;;;;;;4995817;28;20022;-73
2021/05/10 12:15:26;;;;;;;6.75;2.03;;;21.20;98.10;;;;;;5013116;28;20138;-71
2021/05/10 12:17:57;;;;;;;2.85;1.58;;;21.20;98.50;;;;;;5013243;28;20036;-72
2021/05/10 12:20:24;;;;;;;5.15;1.40;;;21.00;98.60;;;;;;4995504;28;20503;-73
2021/05/10 12:22:58;;;;;;;3.53;1.40;;;20.80;98.80;;;;;;5012796;28;20026;-71
2021/05/10 12:25:25;;;;;;;3.80;1.45;;;20.80;99.00;;;;;;5013194;28;20467;-72
2021/05/10 12:28:14;;;;;;;4.25;1.48;;;20.60;99.00;;;;;;5013254;28;20017;-73
2021/05/10 12:30:46;;;;;;;7.68;1.98;;;20.90;98.90;;;;;;4995346;28;20036;-72
2021/05/10 12:33:21;;;;;;;2.75;1.00;;;20.90;98.50;;;;;;5012576;28;20076;-71
2021/05/10 12:35:48;;;;;;;3.67;1.38;;;21.00;99.30;;;;;;5013193;28;20030;-72
2021/05/10 12:38:28;;;;;;;5.07;1.13;;;20.90;99.30;;;;;;5012848;28;20469;-73
2021/05/10 12:40:54;;;;;;;1.33;0.95;;;20.80;99.00;;;;;;5012982;28;20104;-73
2021/05/10 12:43:22;;;;;;;3.22;1.10;;;20.80;98.90;;;;;;5012496;28;20053;-72
2021/05/10 12:45:56;;;;;;;4.00;1.00;;;20.70;98.70;;;;;;5012771;28;20113;-72
2021/05/10 12:48:38;;;;;;;8.88;1.70;;;20.70;99.20;;;;;;5012874;28;20025;-72
2021/05/10 12:51:05;;;;;;;2.42;1.10;;;20.90;98.90;;;;;;5012772;28;20369;-72
2021/05/10 12:53:41;;;;;;;4.63;1.33;;;20.80;98.70;;;;;;5012168;28;20041;-72
2021/05/10 12:56:09;;;;;;;4.82;1.50;;;21.00;99.20;;;;;;5013197;28;20026;-72
2021/05/10 12:58:43;;;;;;;2.85;1.15;;;21.30;98.40;;;;;;5012209;28;20022;-72
2021/05/10 13:01:22;;;;;;;5.07;1.10;;;21.30;98.60;;;;;;5011701;28;20065;-74